sensor_id;sensor_type;location;lat;lon;timestamp;P1;durP1;ratioP1;P2;durP2;ratioP2
26981;SDS011;14533;50.848;4.380;2022-08-25T00:01:13;6.78;;;5.25;;
26981;SDS011;14533;50.848;4.380;2022-08-25T00:03:44;9.68;;;5.97;;
26981;SDS011;14533;50.848;4.380;2022-08-25T00:06:12;9.30;;;6.07;;
26981;SDS011;14533;50.848;4.380;2022-08-25T00:08:39;9.10;;;5.32;;
26981;SDS011;14533;50.848;4.380;2022-08-25T00:11:09;8.35;;;5.47;;
26981;SDS011;14533;50.848;4.380;2022-08-25T00:13:39;6.85;;;5.07;;
26981;SDS011;14533;50.848;4.380;2022-08-25T00:16:08;9.82;;;5.63;;
26981;SDS011;14533;50.848;4.380;2022-08-25T00:18:35;9.20;;;6.00;;
26981;SDS011;14533;50.848;4.380;2022-08-25T00:21:03;7.22;;;5.90;;
26981;SDS011;14533;50.848;4.380;2022-08-25T00:23:30;10.27;;;6.07;;
26981;SDS011;14533;50.848;4.380;2022-08-25T00:25:56;7.00;;;5.60;;
26981;SDS011;14533;50.848;4.380;2022-08-25T00:28:22;10.45;;;6.10;;
26981;SDS011;14533;50.848;4.380;2022-08-25T00:30:48;11.68;;;5.93;;
26981;SDS011;14533;50.848;4.380;2022-08-25T00:33:14;8.30;;;5.80;;
26981;SDS011;14533;50.848;4.380;2022-08-25T00:35:41;9.43;;;5.57;;
26981;SDS011;14533;50.848;4.380;2022-08-25T00:38:09;8.18;;;5.88;;
26981;SDS011;14533;50.848;4.380;2022-08-25T00:40:36;10.02;;;6.47;;
26981;SDS011;14533;50.848;4.380;2022-08-25T00:43:04;9.93;;;7.10;;
26981;SDS011;14533;50.848;4.380;2022-08-25T00:45:31;10.15;;;6.20;;
26981;SDS011;14533;50.848;4.380;2022-08-25T00:47:58;8.10;;;6.00;;
26981;SDS011;14533;50.848;4.380;2022-08-25T00:50:25;12.52;;;6.50;;
26981;SDS011;14533;50.848;4.380;2022-08-25T00:52:53;7.82;;;6.50;;
26981;SDS011;14533;50.848;4.380;2022-08-25T00:55:26;11.32;;;6.40;;
26981;SDS011;14533;50.848;4.380;2022-08-25T01:00:39;14.63;;;6.30;;
26981;SDS011;14533;50.848;4.380;2022-08-25T01:03:08;12.45;;;6.07;;
26981;SDS011;14533;50.848;4.380;2022-08-25T01:05:35;7.82;;;6.40;;
26981;SDS011;14533;50.848;4.380;2022-08-25T01:08:05;11.93;;;6.30;;
26981;SDS011;14533;50.848;4.380;2022-08-25T01:10:34;9.23;;;7.00;;
26981;SDS011;14533;50.848;4.380;2022-08-25T01:13:06;9.25;;;6.20;;
26981;SDS011;14533;50.848;4.380;2022-08-25T01:15:48;11.23;;;6.72;;
26981;SDS011;14533;50.848;4.380;2022-08-25T01:18:18;11.48;;;5.93;;
26981;SDS011;14533;50.848;4.380;2022-08-25T01:20:50;7.30;;;6.57;;
26981;SDS011;14533;50.848;4.380;2022-08-25T01:23:17;9.18;;;6.97;;
26981;SDS011;14533;50.848;4.380;2022-08-25T01:28:16;12.93;;;6.45;;
26981;SDS011;14533;50.848;4.380;2022-08-25T01:30:42;8.15;;;6.50;;
26981;SDS011;14533;50.848;4.380;2022-08-25T01:33:09;7.50;;;6.57;;
26981;SDS011;14533;50.848;4.380;2022-08-25T01:35:36;10.75;;;6.85;;
26981;SDS011;14533;50.848;4.380;2022-08-25T01:38:03;7.45;;;6.35;;
26981;SDS011;14533;50.848;4.380;2022-08-25T01:40:30;13.93;;;7.15;;
26981;SDS011;14533;50.848;4.380;2022-08-25T01:45:41;13.02;;;7.13;;
26981;SDS011;14533;50.848;4.380;2022-08-25T01:48:11;13.18;;;7.28;;
26981;SDS011;14533;50.848;4.380;2022-08-25T01:50:38;9.38;;;7.57;;
26981;SDS011;14533;50.848;4.380;2022-08-25T01:55:42;11.02;;;7.50;;
26981;SDS011;14533;50.848;4.380;2022-08-25T01:58:19;11.68;;;7.55;;
26981;SDS011;14533;50.848;4.380;2022-08-25T02:00:47;12.13;;;7.20;;
26981;SDS011;14533;50.848;4.380;2022-08-25T02:03:16;11.70;;;7.22;;
26981;SDS011;14533;50.848;4.380;2022-08-25T02:05:42;8.20;;;7.07;;
26981;SDS011;14533;50.848;4.380;2022-08-25T02:08:08;11.73;;;6.70;;
26981;SDS011;14533;50.848;4.380;2022-08-25T02:10:35;11.20;;;7.32;;
26981;SDS011;14533;50.848;4.380;2022-08-25T02:13:02;12.40;;;7.18;;
26981;SDS011;14533;50.848;4.380;2022-08-25T02:15:29;11.35;;;6.97;;
26981;SDS011;14533;50.848;4.380;2022-08-25T02:17:55;9.60;;;7.68;;
26981;SDS011;14533;50.848;4.380;2022-08-25T02:20:22;9.73;;;7.43;;
26981;SDS011;14533;50.848;4.380;2022-08-25T02:22:49;8.52;;;6.85;;
26981;SDS011;14533;50.848;4.380;2022-08-25T02:25:15;10.50;;;7.32;;
26981;SDS011;14533;50.848;4.380;2022-08-25T02:27:42;10.55;;;7.78;;
26981;SDS011;14533;50.848;4.380;2022-08-25T02:30:09;11.75;;;6.90;;
26981;SDS011;14533;50.848;4.380;2022-08-25T02:32:37;12.82;;;7.00;;
26981;SDS011;14533;50.848;4.380;2022-08-25T02:35:03;11.82;;;6.85;;
26981;SDS011;14533;50.848;4.380;2022-08-25T02:37:31;13.65;;;6.78;;
26981;SDS011;14533;50.848;4.380;2022-08-25T02:39:57;10.02;;;6.85;;
26981;SDS011;14533;50.848;4.380;2022-08-25T02:42:23;13.48;;;7.13;;
26981;SDS011;14533;50.848;4.380;2022-08-25T02:44:48;9.32;;;7.18;;
26981;SDS011;14533;50.848;4.380;2022-08-25T02:47:15;10.30;;;6.57;;
26981;SDS011;14533;50.848;4.380;2022-08-25T02:49:40;11.40;;;6.75;;
26981;SDS011;14533;50.848;4.380;2022-08-25T02:52:06;11.50;;;6.32;;
26981;SDS011;14533;50.848;4.380;2022-08-25T02:54:33;14.05;;;6.22;;
26981;SDS011;14533;50.848;4.380;2022-08-25T02:56:59;11.48;;;6.55;;
26981;SDS011;14533;50.848;4.380;2022-08-25T02:59:25;9.85;;;6.28;;
26981;SDS011;14533;50.848;4.380;2022-08-25T03:01:51;9.80;;;5.70;;
26981;SDS011;14533;50.848;4.380;2022-08-25T03:04:17;15.52;;;6.03;;
26981;SDS011;14533;50.848;4.380;2022-08-25T03:06:43;9.05;;;5.57;;
26981;SDS011;14533;50.848;4.380;2022-08-25T03:09:10;8.75;;;5.97;;
26981;SDS011;14533;50.848;4.380;2022-08-25T03:11:35;12.30;;;5.90;;
26981;SDS011;14533;50.848;4.380;2022-08-25T03:14:05;6.90;;;5.35;;
26981;SDS011;14533;50.848;4.380;2022-08-25T03:16:32;8.23;;;5.15;;
26981;SDS011;14533;50.848;4.380;2022-08-25T03:18:58;12.90;;;4.90;;
26981;SDS011;14533;50.848;4.380;2022-08-25T03:21:24;9.93;;;4.93;;
26981;SDS011;14533;50.848;4.380;2022-08-25T03:23:51;7.07;;;4.38;;
26981;SDS011;14533;50.848;4.380;2022-08-25T03:26:17;5.78;;;4.47;;
26981;SDS011;14533;50.848;4.380;2022-08-25T03:29:01;9.13;;;4.50;;
26981;SDS011;14533;50.848;4.380;2022-08-25T03:31:29;5.28;;;3.55;;
26981;SDS011;14533;50.848;4.380;2022-08-25T03:33:57;8.30;;;4.82;;
26981;SDS011;14533;50.848;4.380;2022-08-25T03:36:24;7.03;;;3.92;;
26981;SDS011;14533;50.848;4.380;2022-08-25T03:38:51;11.48;;;4.38;;
26981;SDS011;14533;50.848;4.380;2022-08-25T03:41:19;7.72;;;4.43;;
26981;SDS011;14533;50.848;4.380;2022-08-25T03:43:46;9.00;;;4.25;;
26981;SDS011;14533;50.848;4.380;2022-08-25T03:46:17;9.48;;;4.30;;
26981;SDS011;14533;50.848;4.380;2022-08-25T03:48:44;7.53;;;4.03;;
26981;SDS011;14533;50.848;4.380;2022-08-25T03:51:10;7.65;;;4.50;;
26981;SDS011;14533;50.848;4.380;2022-08-25T03:53:36;7.47;;;4.20;;
26981;SDS011;14533;50.848;4.380;2022-08-25T03:56:02;9.63;;;4.68;;
26981;SDS011;14533;50.848;4.380;2022-08-25T03:58:28;10.52;;;3.97;;
26981;SDS011;14533;50.848;4.380;2022-08-25T04:00:53;8.18;;;4.45;;
26981;SDS011;14533;50.848;4.380;2022-08-25T04:03:20;9.00;;;4.43;;
26981;SDS011;14533;50.848;4.380;2022-08-25T04:05:46;9.63;;;4.15;;
26981;SDS011;14533;50.848;4.380;2022-08-25T04:08:12;9.30;;;4.03;;
26981;SDS011;14533;50.848;4.380;2022-08-25T04:10:37;7.97;;;4.03;;
26981;SDS011;14533;50.848;4.380;2022-08-25T04:13:03;7.25;;;4.15;;
26981;SDS011;14533;50.848;4.380;2022-08-25T04:15:29;6.97;;;4.18;;
26981;SDS011;14533;50.848;4.380;2022-08-25T04:17:55;6.40;;;4.03;;
26981;SDS011;14533;50.848;4.380;2022-08-25T04:20:22;8.45;;;4.90;;
26981;SDS011;14533;50.848;4.380;2022-08-25T04:22:48;12.13;;;6.00;;
26981;SDS011;14533;50.848;4.380;2022-08-25T04:25:14;15.43;;;5.75;;
26981;SDS011;14533;50.848;4.380;2022-08-25T04:27:39;11.20;;;5.40;;
26981;SDS011;14533;50.848;4.380;2022-08-25T04:30:06;9.65;;;5.63;;
26981;SDS011;14533;50.848;4.380;2022-08-25T04:32:33;8.27;;;5.25;;
26981;SDS011;14533;50.848;4.380;2022-08-25T04:35:00;9.73;;;5.10;;
26981;SDS011;14533;50.848;4.380;2022-08-25T04:37:26;12.43;;;5.05;;
26981;SDS011;14533;50.848;4.380;2022-08-25T04:39:51;8.55;;;4.45;;
26981;SDS011;14533;50.848;4.380;2022-08-25T04:42:17;9.85;;;4.53;;
26981;SDS011;14533;50.848;4.380;2022-08-25T04:44:43;9.95;;;4.90;;
26981;SDS011;14533;50.848;4.380;2022-08-25T04:47:08;8.65;;;4.50;;
26981;SDS011;14533;50.848;4.380;2022-08-25T04:49:35;5.95;;;4.40;;
26981;SDS011;14533;50.848;4.380;2022-08-25T04:52:01;6.63;;;4.22;;
26981;SDS011;14533;50.848;4.380;2022-08-25T04:54:27;8.98;;;4.50;;
26981;SDS011;14533;50.848;4.380;2022-08-25T04:56:53;7.95;;;4.22;;
26981;SDS011;14533;50.848;4.380;2022-08-25T04:59:19;6.68;;;4.05;;
26981;SDS011;14533;50.848;4.380;2022-08-25T05:01:45;7.65;;;4.63;;
26981;SDS011;14533;50.848;4.380;2022-08-25T05:04:11;8.07;;;4.05;;
26981;SDS011;14533;50.848;4.380;2022-08-25T05:06:39;14.00;;;4.32;;
26981;SDS011;14533;50.848;4.380;2022-08-25T05:09:06;8.48;;;4.07;;
26981;SDS011;14533;50.848;4.380;2022-08-25T05:11:32;10.93;;;5.63;;
26981;SDS011;14533;50.848;4.380;2022-08-25T05:14:00;8.52;;;4.30;;
26981;SDS011;14533;50.848;4.380;2022-08-25T05:16:26;11.93;;;4.20;;
26981;SDS011;14533;50.848;4.380;2022-08-25T05:18:53;9.43;;;4.63;;
26981;SDS011;14533;50.848;4.380;2022-08-25T05:21:20;9.02;;;3.80;;
26981;SDS011;14533;50.848;4.380;2022-08-25T05:23:48;4.95;;;3.97;;
26981;SDS011;14533;50.848;4.380;2022-08-25T05:26:18;6.15;;;3.63;;
26981;SDS011;14533;50.848;4.380;2022-08-25T05:31:12;7.43;;;3.72;;
26981;SDS011;14533;50.848;4.380;2022-08-25T05:33:39;5.15;;;3.50;;
26981;SDS011;14533;50.848;4.380;2022-08-25T05:36:07;20.40;;;3.90;;
26981;SDS011;14533;50.848;4.380;2022-08-25T05:38:34;5.07;;;3.60;;
26981;SDS011;14533;50.848;4.380;2022-08-25T05:41:04;5.22;;;3.60;;
26981;SDS011;14533;50.848;4.380;2022-08-25T05:43:32;6.40;;;3.53;;
26981;SDS011;14533;50.848;4.380;2022-08-25T05:45:58;9.07;;;4.30;;
26981;SDS011;14533;50.848;4.380;2022-08-25T05:48:25;10.45;;;4.65;;
26981;SDS011;14533;50.848;4.380;2022-08-25T05:50:55;9.52;;;3.95;;
26981;SDS011;14533;50.848;4.380;2022-08-25T05:53:24;10.57;;;3.90;;
26981;SDS011;14533;50.848;4.380;2022-08-25T05:55:52;9.90;;;3.97;;
26981;SDS011;14533;50.848;4.380;2022-08-25T05:58:19;7.05;;;3.53;;
26981;SDS011;14533;50.848;4.380;2022-08-25T06:00:46;9.27;;;3.55;;
26981;SDS011;14533;50.848;4.380;2022-08-25T06:03:11;8.38;;;3.65;;
26981;SDS011;14533;50.848;4.380;2022-08-25T06:05:38;6.13;;;3.55;;
26981;SDS011;14533;50.848;4.380;2022-08-25T06:08:03;8.35;;;3.55;;
26981;SDS011;14533;50.848;4.380;2022-08-25T06:10:29;6.75;;;3.63;;
26981;SDS011;14533;50.848;4.380;2022-08-25T06:12:55;9.48;;;3.63;;
26981;SDS011;14533;50.848;4.380;2022-08-25T06:15:22;8.35;;;3.47;;
26981;SDS011;14533;50.848;4.380;2022-08-25T06:17:48;10.75;;;4.13;;
26981;SDS011;14533;50.848;4.380;2022-08-25T06:20:16;12.27;;;3.80;;
26981;SDS011;14533;50.848;4.380;2022-08-25T06:22:44;13.55;;;3.47;;
26981;SDS011;14533;50.848;4.380;2022-08-25T06:25:12;11.65;;;3.50;;
26981;SDS011;14533;50.848;4.380;2022-08-25T06:27:40;7.53;;;3.70;;
26981;SDS011;14533;50.848;4.380;2022-08-25T06:30:07;14.20;;;3.80;;
26981;SDS011;14533;50.848;4.380;2022-08-25T06:32:36;9.52;;;3.85;;
26981;SDS011;14533;50.848;4.380;2022-08-25T06:35:04;12.40;;;4.38;;
26981;SDS011;14533;50.848;4.380;2022-08-25T06:37:33;6.30;;;3.55;;
26981;SDS011;14533;50.848;4.380;2022-08-25T06:39:59;15.35;;;3.95;;
26981;SDS011;14533;50.848;4.380;2022-08-25T06:42:25;7.78;;;3.63;;
26981;SDS011;14533;50.848;4.380;2022-08-25T06:44:51;7.35;;;3.55;;
26981;SDS011;14533;50.848;4.380;2022-08-25T06:47:17;8.15;;;3.67;;
26981;SDS011;14533;50.848;4.380;2022-08-25T06:49:43;13.52;;;3.65;;
26981;SDS011;14533;50.848;4.380;2022-08-25T06:52:09;8.75;;;3.33;;
26981;SDS011;14533;50.848;4.380;2022-08-25T06:54:35;8.90;;;3.20;;
26981;SDS011;14533;50.848;4.380;2022-08-25T06:57:02;7.10;;;3.20;;
26981;SDS011;14533;50.848;4.380;2022-08-25T06:59:28;11.10;;;3.70;;
26981;SDS011;14533;50.848;4.380;2022-08-25T07:01:54;14.50;;;3.13;;
26981;SDS011;14533;50.848;4.380;2022-08-25T07:04:20;11.48;;;3.13;;
26981;SDS011;14533;50.848;4.380;2022-08-25T07:06:45;10.52;;;3.10;;
26981;SDS011;14533;50.848;4.380;2022-08-25T07:09:11;7.80;;;2.83;;
26981;SDS011;14533;50.848;4.380;2022-08-25T07:11:38;10.07;;;3.35;;
26981;SDS011;14533;50.848;4.380;2022-08-25T07:14:06;8.95;;;2.92;;
26981;SDS011;14533;50.848;4.380;2022-08-25T07:16:33;7.38;;;3.30;;
26981;SDS011;14533;50.848;4.380;2022-08-25T07:18:59;6.40;;;3.10;;
26981;SDS011;14533;50.848;4.380;2022-08-25T07:21:26;13.30;;;2.92;;
26981;SDS011;14533;50.848;4.380;2022-08-25T07:23:53;8.23;;;3.15;;
26981;SDS011;14533;50.848;4.380;2022-08-25T07:26:20;10.82;;;3.70;;
26981;SDS011;14533;50.848;4.380;2022-08-25T07:28:48;7.57;;;3.45;;
26981;SDS011;14533;50.848;4.380;2022-08-25T07:31:14;9.52;;;3.25;;
26981;SDS011;14533;50.848;4.380;2022-08-25T07:33:40;10.52;;;3.17;;
26981;SDS011;14533;50.848;4.380;2022-08-25T07:36:24;10.82;;;3.08;;
26981;SDS011;14533;50.848;4.380;2022-08-25T07:38:50;20.98;;;3.38;;
26981;SDS011;14533;50.848;4.380;2022-08-25T07:41:16;13.53;;;4.20;;
26981;SDS011;14533;50.848;4.380;2022-08-25T07:43:42;7.65;;;3.78;;
26981;SDS011;14533;50.848;4.380;2022-08-25T07:46:08;5.00;;;3.40;;
26981;SDS011;14533;50.848;4.380;2022-08-25T07:48:34;8.57;;;3.40;;
26981;SDS011;14533;50.848;4.380;2022-08-25T07:51:06;8.95;;;3.97;;
26981;SDS011;14533;50.848;4.380;2022-08-25T07:53:33;9.73;;;4.38;;
26981;SDS011;14533;50.848;4.380;2022-08-25T07:55:59;4.20;;;2.75;;
26981;SDS011;14533;50.848;4.380;2022-08-25T07:58:26;11.90;;;2.78;;
26981;SDS011;14533;50.848;4.380;2022-08-25T08:00:51;12.05;;;3.35;;
26981;SDS011;14533;50.848;4.380;2022-08-25T08:03:18;6.10;;;3.58;;
26981;SDS011;14533;50.848;4.380;2022-08-25T08:05:45;5.38;;;2.65;;
26981;SDS011;14533;50.848;4.380;2022-08-25T08:08:11;8.40;;;2.92;;
26981;SDS011;14533;50.848;4.380;2022-08-25T08:10:38;7.95;;;2.67;;
26981;SDS011;14533;50.848;4.380;2022-08-25T08:13:04;8.18;;;2.90;;
26981;SDS011;14533;50.848;4.380;2022-08-25T08:15:30;5.60;;;2.60;;
26981;SDS011;14533;50.848;4.380;2022-08-25T08:17:56;6.28;;;3.17;;
26981;SDS011;14533;50.848;4.380;2022-08-25T08:20:23;6.15;;;2.85;;
26981;SDS011;14533;50.848;4.380;2022-08-25T08:22:48;3.47;;;2.40;;
26981;SDS011;14533;50.848;4.380;2022-08-25T08:25:14;11.75;;;3.28;;
26981;SDS011;14533;50.848;4.380;2022-08-25T08:27:40;9.43;;;2.67;;
26981;SDS011;14533;50.848;4.380;2022-08-25T08:30:07;10.00;;;2.92;;
26981;SDS011;14533;50.848;4.380;2022-08-25T08:32:33;3.58;;;2.58;;
26981;SDS011;14533;50.848;4.380;2022-08-25T08:34:58;9.02;;;2.97;;
26981;SDS011;14533;50.848;4.380;2022-08-25T08:37:24;6.57;;;2.65;;
26981;SDS011;14533;50.848;4.380;2022-08-25T08:39:50;4.25;;;2.28;;
26981;SDS011;14533;50.848;4.380;2022-08-25T08:42:31;7.10;;;3.40;;
26981;SDS011;14533;50.848;4.380;2022-08-25T08:45:24;7.60;;;2.92;;
26981;SDS011;14533;50.848;4.380;2022-08-25T08:50:30;7.82;;;2.53;;
26981;SDS011;14533;50.848;4.380;2022-08-25T08:55:59;2.95;;;2.13;;
26981;SDS011;14533;50.848;4.380;2022-08-25T09:01:15;7.07;;;3.08;;
26981;SDS011;14533;50.848;4.380;2022-08-25T09:03:51;4.90;;;2.20;;
26981;SDS011;14533;50.848;4.380;2022-08-25T09:06:25;4.90;;;2.10;;
26981;SDS011;14533;50.848;4.380;2022-08-25T09:09:07;12.45;;;2.92;;
26981;SDS011;14533;50.848;4.380;2022-08-25T09:17:00;7.70;;;2.47;;
26981;SDS011;14533;50.848;4.380;2022-08-25T09:22:23;7.38;;;2.03;;
26981;SDS011;14533;50.848;4.380;2022-08-25T09:28:18;8.15;;;2.40;;
26981;SDS011;14533;50.848;4.380;2022-08-25T09:33:27;5.35;;;2.35;;
26981;SDS011;14533;50.848;4.380;2022-08-25T09:35:55;8.88;;;2.65;;
26981;SDS011;14533;50.848;4.380;2022-08-25T09:38:22;5.82;;;2.70;;
26981;SDS011;14533;50.848;4.380;2022-08-25T09:40:50;5.30;;;2.53;;
26981;SDS011;14533;50.848;4.380;2022-08-25T09:48:48;5.97;;;3.50;;
26981;SDS011;14533;50.848;4.380;2022-08-25T09:51:24;5.80;;;2.05;;
26981;SDS011;14533;50.848;4.380;2022-08-25T09:54:02;9.63;;;2.22;;
26981;SDS011;14533;50.848;4.380;2022-08-25T09:56:51;3.47;;;2.25;;
26981;SDS011;14533;50.848;4.380;2022-08-25T09:59:23;10.77;;;3.33;;
26981;SDS011;14533;50.848;4.380;2022-08-25T10:01:53;8.23;;;2.60;;
26981;SDS011;14533;50.848;4.380;2022-08-25T10:04:32;9.60;;;2.50;;
26981;SDS011;14533;50.848;4.380;2022-08-25T10:07:04;7.90;;;3.67;;
26981;SDS011;14533;50.848;4.380;2022-08-25T10:09:49;10.50;;;3.65;;
26981;SDS011;14533;50.848;4.380;2022-08-25T10:12:20;6.63;;;2.33;;
26981;SDS011;14533;50.848;4.380;2022-08-25T10:14:49;4.15;;;2.33;;
26981;SDS011;14533;50.848;4.380;2022-08-25T10:19:49;8.32;;;3.90;;
26981;SDS011;14533;50.848;4.380;2022-08-25T10:22:33;5.78;;;2.95;;
26981;SDS011;14533;50.848;4.380;2022-08-25T10:25:00;4.68;;;2.95;;
26981;SDS011;14533;50.848;4.380;2022-08-25T10:41:05;3.13;;;1.80;;
26981;SDS011;14533;50.848;4.380;2022-08-25T10:46:51;4.20;;;2.15;;
26981;SDS011;14533;50.848;4.380;2022-08-25T10:52:11;7.38;;;2.25;;
26981;SDS011;14533;50.848;4.380;2022-08-25T10:54:47;5.78;;;2.20;;
26981;SDS011;14533;50.848;4.380;2022-08-25T10:57:25;5.43;;;2.30;;
26981;SDS011;14533;50.848;4.380;2022-08-25T11:05:30;6.90;;;1.83;;
26981;SDS011;14533;50.848;4.380;2022-08-25T11:10:56;5.03;;;2.30;;
26981;SDS011;14533;50.848;4.380;2022-08-25T11:16:37;7.60;;;2.25;;
26981;SDS011;14533;50.848;4.380;2022-08-25T11:28:07;2.65;;;1.88;;
26981;SDS011;14533;50.848;4.380;2022-08-25T11:33:24;3.93;;;2.40;;
26981;SDS011;14533;50.848;4.380;2022-08-25T11:35:59;3.33;;;2.15;;
26981;SDS011;14533;50.848;4.380;2022-08-25T11:41:31;5.53;;;1.98;;
26981;SDS011;14533;50.848;4.380;2022-08-25T11:44:13;7.80;;;2.80;;
26981;SDS011;14533;50.848;4.380;2022-08-25T11:55:09;8.15;;;2.38;;
26981;SDS011;14533;50.848;4.380;2022-08-25T11:57:41;3.38;;;2.20;;
26981;SDS011;14533;50.848;4.380;2022-08-25T12:02:45;5.68;;;2.53;;
26981;SDS011;14533;50.848;4.380;2022-08-25T12:11:00;8.85;;;2.50;;
26981;SDS011;14533;50.848;4.380;2022-08-25T12:13:39;5.53;;;2.20;;
26981;SDS011;14533;50.848;4.380;2022-08-25T12:19:21;2.28;;;1.70;;
26981;SDS011;14533;50.848;4.380;2022-08-25T12:21:52;4.45;;;1.98;;
26981;SDS011;14533;50.848;4.380;2022-08-25T12:24:20;4.32;;;2.10;;
26981;SDS011;14533;50.848;4.380;2022-08-25T12:27:00;4.32;;;2.70;;
26981;SDS011;14533;50.848;4.380;2022-08-25T12:29:44;6.57;;;2.20;;
26981;SDS011;14533;50.848;4.380;2022-08-25T12:45:48;4.07;;;2.40;;
26981;SDS011;14533;50.848;4.380;2022-08-25T12:53:40;5.70;;;2.40;;
26981;SDS011;14533;50.848;4.380;2022-08-25T12:56:26;5.00;;;2.10;;
26981;SDS011;14533;50.848;4.380;2022-08-25T12:59:19;6.35;;;1.98;;
26981;SDS011;14533;50.848;4.380;2022-08-25T13:02:30;7.75;;;1.92;;
26981;SDS011;14533;50.848;4.380;2022-08-25T13:10:57;3.88;;;2.03;;
26981;SDS011;14533;50.848;4.380;2022-08-25T13:16:31;4.45;;;2.17;;
26981;SDS011;14533;50.848;4.380;2022-08-25T13:18:57;2.58;;;2.20;;
26981;SDS011;14533;50.848;4.380;2022-08-25T13:24:00;5.50;;;2.58;;
26981;SDS011;14533;50.848;4.380;2022-08-25T13:26:28;8.57;;;2.90;;
26981;SDS011;14533;50.848;4.380;2022-08-25T13:31:35;4.28;;;2.13;;
26981;SDS011;14533;50.848;4.380;2022-08-25T13:34:04;3.45;;;2.40;;
26981;SDS011;14533;50.848;4.380;2022-08-25T13:36:42;5.78;;;2.20;;
26981;SDS011;14533;50.848;4.380;2022-08-25T13:39:28;8.13;;;2.30;;
26981;SDS011;14533;50.848;4.380;2022-08-25T13:41:57;6.78;;;2.20;;
26981;SDS011;14533;50.848;4.380;2022-08-25T13:44:24;3.15;;;1.95;;
26981;SDS011;14533;50.848;4.380;2022-08-25T13:47:08;3.60;;;2.22;;
26981;SDS011;14533;50.848;4.380;2022-08-25T13:49:34;7.88;;;2.67;;
26981;SDS011;14533;50.848;4.380;2022-08-25T13:52:00;6.97;;;3.13;;
26981;SDS011;14533;50.848;4.380;2022-08-25T13:54:30;7.25;;;2.30;;
26981;SDS011;14533;50.848;4.380;2022-08-25T13:57:20;4.63;;;2.25;;
26981;SDS011;14533;50.848;4.380;2022-08-25T13:59:48;12.45;;;2.17;;
26981;SDS011;14533;50.848;4.380;2022-08-25T14:02:37;3.63;;;1.92;;
26981;SDS011;14533;50.848;4.380;2022-08-25T14:05:06;5.00;;;2.63;;
26981;SDS011;14533;50.848;4.380;2022-08-25T14:07:31;13.45;;;5.53;;
26981;SDS011;14533;50.848;4.380;2022-08-25T14:15:04;19.55;;;4.65;;
26981;SDS011;14533;50.848;4.380;2022-08-25T14:18:00;14.93;;;4.82;;
26981;SDS011;14533;50.848;4.380;2022-08-25T14:20:33;10.82;;;4.88;;
26981;SDS011;14533;50.848;4.380;2022-08-25T14:23:05;19.48;;;5.70;;
26981;SDS011;14533;50.848;4.380;2022-08-25T14:25:33;15.07;;;6.03;;
26981;SDS011;14533;50.848;4.380;2022-08-25T14:28:04;13.80;;;5.30;;
26981;SDS011;14533;50.848;4.380;2022-08-25T14:30:34;12.95;;;5.30;;
26981;SDS011;14533;50.848;4.380;2022-08-25T14:33:04;12.55;;;5.55;;
26981;SDS011;14533;50.848;4.380;2022-08-25T14:35:30;11.23;;;5.20;;
26981;SDS011;14533;50.848;4.380;2022-08-25T14:37:56;9.93;;;5.25;;
26981;SDS011;14533;50.848;4.380;2022-08-25T14:40:22;9.90;;;5.20;;
26981;SDS011;14533;50.848;4.380;2022-08-25T14:42:48;9.20;;;4.65;;
26981;SDS011;14533;50.848;4.380;2022-08-25T14:45:14;11.43;;;4.72;;
26981;SDS011;14533;50.848;4.380;2022-08-25T14:47:41;9.07;;;5.05;;
26981;SDS011;14533;50.848;4.380;2022-08-25T14:50:10;13.63;;;4.95;;
26981;SDS011;14533;50.848;4.380;2022-08-25T14:52:39;7.63;;;4.20;;
26981;SDS011;14533;50.848;4.380;2022-08-25T14:55:07;14.43;;;3.63;;
26981;SDS011;14533;50.848;4.380;2022-08-25T14:57:34;11.18;;;3.95;;
26981;SDS011;14533;50.848;4.380;2022-08-25T15:00:00;12.88;;;6.18;;
26981;SDS011;14533;50.848;4.380;2022-08-25T15:02:26;13.30;;;4.38;;
26981;SDS011;14533;50.848;4.380;2022-08-25T15:04:57;9.63;;;4.00;;
26981;SDS011;14533;50.848;4.380;2022-08-25T15:07:26;12.90;;;4.13;;
26981;SDS011;14533;50.848;4.380;2022-08-25T15:10:13;12.70;;;4.28;;
26981;SDS011;14533;50.848;4.380;2022-08-25T15:12:39;13.13;;;4.68;;
26981;SDS011;14533;50.848;4.380;2022-08-25T15:15:04;10.38;;;5.28;;
26981;SDS011;14533;50.848;4.380;2022-08-25T15:17:31;11.93;;;5.00;;
26981;SDS011;14533;50.848;4.380;2022-08-25T15:19:56;15.00;;;5.35;;
26981;SDS011;14533;50.848;4.380;2022-08-25T15:22:22;18.83;;;7.97;;
26981;SDS011;14533;50.848;4.380;2022-08-25T15:24:48;17.95;;;7.47;;
26981;SDS011;14533;50.848;4.380;2022-08-25T15:27:14;19.73;;;7.28;;
26981;SDS011;14533;50.848;4.380;2022-08-25T15:29:43;17.15;;;8.38;;
26981;SDS011;14533;50.848;4.380;2022-08-25T15:32:09;17.10;;;9.60;;
26981;SDS011;14533;50.848;4.380;2022-08-25T15:34:35;18.00;;;9.98;;
26981;SDS011;14533;50.848;4.380;2022-08-25T15:37:08;12.23;;;9.52;;
26981;SDS011;14533;50.848;4.380;2022-08-25T15:39:36;17.65;;;10.07;;
26981;SDS011;14533;50.848;4.380;2022-08-25T15:42:02;16.50;;;10.32;;
26981;SDS011;14533;50.848;4.380;2022-08-25T15:44:29;14.90;;;9.70;;
26981;SDS011;14533;50.848;4.380;2022-08-25T15:46:55;17.25;;;9.80;;
26981;SDS011;14533;50.848;4.380;2022-08-25T15:49:22;14.15;;;10.60;;
26981;SDS011;14533;50.848;4.380;2022-08-25T15:51:48;15.93;;;10.18;;
26981;SDS011;14533;50.848;4.380;2022-08-25T15:54:16;13.35;;;10.27;;
26981;SDS011;14533;50.848;4.380;2022-08-25T15:56:41;11.85;;;8.75;;
26981;SDS011;14533;50.848;4.380;2022-08-25T15:59:08;20.02;;;8.70;;
26981;SDS011;14533;50.848;4.380;2022-08-25T16:01:34;14.27;;;7.78;;
26981;SDS011;14533;50.848;4.380;2022-08-25T16:03:59;16.70;;;7.65;;
26981;SDS011;14533;50.848;4.380;2022-08-25T16:06:26;13.93;;;7.75;;
26981;SDS011;14533;50.848;4.380;2022-08-25T16:08:52;20.98;;;9.60;;
26981;SDS011;14533;50.848;4.380;2022-08-25T16:11:19;17.58;;;8.30;;
26981;SDS011;14533;50.848;4.380;2022-08-25T16:13:47;13.70;;;7.82;;
26981;SDS011;14533;50.848;4.380;2022-08-25T16:16:16;14.13;;;7.65;;
26981;SDS011;14533;50.848;4.380;2022-08-25T16:18:43;21.55;;;8.50;;
26981;SDS011;14533;50.848;4.380;2022-08-25T16:21:17;12.77;;;8.13;;
26981;SDS011;14533;50.848;4.380;2022-08-25T16:23:48;27.30;;;12.13;;
26981;SDS011;14533;50.848;4.380;2022-08-25T16:26:14;17.02;;;13.32;;
26981;SDS011;14533;50.848;4.380;2022-08-25T16:28:40;16.52;;;12.10;;
26981;SDS011;14533;50.848;4.380;2022-08-25T16:31:10;24.30;;;13.23;;
26981;SDS011;14533;50.848;4.380;2022-08-25T16:36:08;24.23;;;14.23;;
26981;SDS011;14533;50.848;4.380;2022-08-25T16:38:34;29.65;;;15.50;;
26981;SDS011;14533;50.848;4.380;2022-08-25T16:41:03;23.23;;;14.82;;
26981;SDS011;14533;50.848;4.380;2022-08-25T16:43:30;24.45;;;13.52;;
26981;SDS011;14533;50.848;4.380;2022-08-25T16:45:59;19.70;;;14.73;;
26981;SDS011;14533;50.848;4.380;2022-08-25T16:48:26;18.03;;;13.60;;
26981;SDS011;14533;50.848;4.380;2022-08-25T16:50:55;15.32;;;12.77;;
26981;SDS011;14533;50.848;4.380;2022-08-25T16:53:21;15.20;;;12.20;;
26981;SDS011;14533;50.848;4.380;2022-08-25T16:56:06;23.65;;;11.77;;
26981;SDS011;14533;50.848;4.380;2022-08-25T16:58:32;18.35;;;12.27;;
26981;SDS011;14533;50.848;4.380;2022-08-25T17:01:06;17.95;;;13.88;;
26981;SDS011;14533;50.848;4.380;2022-08-25T17:03:33;20.45;;;13.85;;
26981;SDS011;14533;50.848;4.380;2022-08-25T17:05:59;22.20;;;13.55;;
26981;SDS011;14533;50.848;4.380;2022-08-25T17:08:25;25.17;;;13.63;;
26981;SDS011;14533;50.848;4.380;2022-08-25T17:11:08;21.83;;;13.52;;
26981;SDS011;14533;50.848;4.380;2022-08-25T17:13:50;20.60;;;12.43;;
26981;SDS011;14533;50.848;4.380;2022-08-25T17:16:19;22.15;;;12.88;;
26981;SDS011;14533;50.848;4.380;2022-08-25T17:18:50;23.25;;;12.88;;
26981;SDS011;14533;50.848;4.380;2022-08-25T17:21:16;21.20;;;13.93;;